sensor_id;sensor_type;location;lat;lon;timestamp;temperature;humidity
59309;DHT22;48433;53.016;-2.260;2022-11-06T00:01:50;5.40;99.90
59309;DHT22;48433;53.016;-2.260;2022-11-06T00:04:18;5.40;99.90
59309;DHT22;48433;53.016;-2.260;2022-11-06T00:06:46;5.40;99.90
59309;DHT22;48433;53.016;-2.260;2022-11-06T00:09:18;5.40;99.90
59309;DHT22;48433;53.016;-2.260;2022-11-06T00:11:48;5.30;99.90
59309;DHT22;48433;53.016;-2.260;2022-11-06T00:14:16;5.30;99.90
59309;DHT22;48433;53.016;-2.260;2022-11-06T00:16:45;5.20;99.90
59309;DHT22;48433;53.016;-2.260;2022-11-06T00:19:14;5.20;99.90
59309;DHT22;48433;53.016;-2.260;2022-11-06T00:21:42;5.10;99.90
59309;DHT22;48433;53.016;-2.260;2022-11-06T00:24:12;5.10;99.90
59309;DHT22;48433;53.016;-2.260;2022-11-06T00:26:40;5.10;99.90
59309;DHT22;48433;53.016;-2.260;2022-11-06T00:29:12;5.00;99.90
59309;DHT22;48433;53.016;-2.260;2022-11-06T00:31:41;5.00;99.90
59309;DHT22;48433;53.016;-2.260;2022-11-06T00:34:09;5.00;99.90
59309;DHT22;48433;53.016;-2.260;2022-11-06T00:36:37;4.90;99.90
59309;DHT22;48433;53.016;-2.260;2022-11-06T00:39:04;4.90;99.90
59309;DHT22;48433;53.016;-2.260;2022-11-06T00:41:32;4.90;99.90
59309;DHT22;48433;53.016;-2.260;2022-11-06T00:44:01;4.90;99.90
59309;DHT22;48433;53.016;-2.260;2022-11-06T00:46:29;4.90;99.90
59309;DHT22;48433;53.016;-2.260;2022-11-06T00:48:57;4.90;99.90
59309;DHT22;48433;53.016;-2.260;2022-11-06T00:51:31;4.90;99.90
59309;DHT22;48433;53.016;-2.260;2022-11-06T00:54:00;4.90;99.90
59309;DHT22;48433;53.016;-2.260;2022-11-06T00:56:30;4.80;99.90
59309;DHT22;48433;53.016;-2.260;2022-11-06T00:58:59;4.80;99.90
59309;DHT22;48433;53.016;-2.260;2022-11-06T01:01:29;4.80;99.90
59309;DHT22;48433;53.016;-2.260;2022-11-06T01:04:05;4.80;99.90
59309;DHT22;48433;53.016;-2.260;2022-11-06T01:06:35;4.80;99.90
59309;DHT22;48433;53.016;-2.260;2022-11-06T01:09:04;4.80;99.90
59309;DHT22;48433;53.016;-2.260;2022-11-06T01:11:37;4.70;99.90
59309;DHT22;48433;53.016;-2.260;2022-11-06T01:14:25;4.60;99.90
59309;DHT22;48433;53.016;-2.260;2022-11-06T01:16:53;4.60;99.90
59309;DHT22;48433;53.016;-2.260;2022-11-06T01:19:22;4.60;99.90
59309;DHT22;48433;53.016;-2.260;2022-11-06T01:21:50;4.60;99.90
59309;DHT22;48433;53.016;-2.260;2022-11-06T01:24:25;4.60;99.90
59309;DHT22;48433;53.016;-2.260;2022-11-06T01:26:54;4.50;99.90
59309;DHT22;48433;53.016;-2.260;2022-11-06T01:29:42;4.50;99.90
59309;DHT22;48433;53.016;-2.260;2022-11-06T01:32:10;4.50;99.90
59309;DHT22;48433;53.016;-2.260;2022-11-06T01:34:38;4.50;99.90
59309;DHT22;48433;53.016;-2.260;2022-11-06T01:37:05;4.50;99.90
59309;DHT22;48433;53.016;-2.260;2022-11-06T01:39:40;4.60;99.90
59309;DHT22;48433;53.016;-2.260;2022-11-06T01:42:11;4.60;99.90
59309;DHT22;48433;53.016;-2.260;2022-11-06T01:47:27;4.60;99.90
59309;DHT22;48433;53.016;-2.260;2022-11-06T01:49:59;4.70;99.90
59309;DHT22;48433;53.016;-2.260;2022-11-06T01:52:28;4.80;99.90
59309;DHT22;48433;53.016;-2.260;2022-11-06T01:55:05;4.80;99.90
59309;DHT22;48433;53.016;-2.260;2022-11-06T01:57:33;4.80;99.90
59309;DHT22;48433;53.016;-2.260;2022-11-06T02:00:03;4.90;99.90
59309;DHT22;48433;53.016;-2.260;2022-11-06T02:02:31;4.90;99.90
59309;DHT22;48433;53.016;-2.260;2022-11-06T02:04:59;5.00;99.90
59309;DHT22;48433;53.016;-2.260;2022-11-06T02:07:26;5.00;99.90
59309;DHT22;48433;53.016;-2.260;2022-11-06T02:09:54;5.00;99.90
59309;DHT22;48433;53.016;-2.260;2022-11-06T02:12:35;5.10;99.90
59309;DHT22;48433;53.016;-2.260;2022-11-06T02:21:16;5.30;99.90
59309;DHT22;48433;53.016;-2.260;2022-11-06T02:27:01;5.40;99.90
59309;DHT22;48433;53.016;-2.260;2022-11-06T02:35:15;5.40;99.90
59309;DHT22;48433;53.016;-2.260;2022-11-06T02:37:46;5.50;99.90
59309;DHT22;48433;53.016;-2.260;2022-11-06T02:40:15;5.50;99.90
59309;DHT22;48433;53.016;-2.260;2022-11-06T02:42:46;5.60;99.90
59309;DHT22;48433;53.016;-2.260;2022-11-06T02:45:16;5.80;99.90
59309;DHT22;48433;53.016;-2.260;2022-11-06T02:47:47;5.80;99.90
59309;DHT22;48433;53.016;-2.260;2022-11-06T02:50:26;5.90;99.90
59309;DHT22;48433;53.016;-2.260;2022-11-06T02:53:04;6.00;99.90
59309;DHT22;48433;53.016;-2.260;2022-11-06T02:55:33;6.10;99.90
59309;DHT22;48433;53.016;-2.260;2022-11-06T02:58:13;6.10;99.90
59309;DHT22;48433;53.016;-2.260;2022-11-06T03:00:47;6.20;99.90
59309;DHT22;48433;53.016;-2.260;2022-11-06T03:03:22;6.20;99.90
59309;DHT22;48433;53.016;-2.260;2022-11-06T03:05:58;6.30;99.90
59309;DHT22;48433;53.016;-2.260;2022-11-06T03:08:34;6.30;99.90
59309;DHT22;48433;53.016;-2.260;2022-11-06T03:11:15;6.30;99.90
59309;DHT22;48433;53.016;-2.260;2022-11-06T03:21:37;6.30;99.90
59309;DHT22;48433;53.016;-2.260;2022-11-06T03:24:15;6.30;99.90
59309;DHT22;48433;53.016;-2.260;2022-11-06T03:26:49;6.30;99.90
59309;DHT22;48433;53.016;-2.260;2022-11-06T03:29:27;6.30;99.90
59309;DHT22;48433;53.016;-2.260;2022-11-06T03:32:19;6.40;99.90
59309;DHT22;48433;53.016;-2.260;2022-11-06T03:35:01;6.40;99.90
59309;DHT22;48433;53.016;-2.260;2022-11-06T03:37:36;6.40;99.90
59309;DHT22;48433;53.016;-2.260;2022-11-06T03:40:13;6.40;99.90
59309;DHT22;48433;53.016;-2.260;2022-11-06T03:42:47;6.40;99.90
59309;DHT22;48433;53.016;-2.260;2022-11-06T03:45:21;6.40;99.90
59309;DHT22;48433;53.016;-2.260;2022-11-06T03:50:39;6.50;99.90
59309;DHT22;48433;53.016;-2.260;2022-11-06T03:53:20;6.50;99.90
59309;DHT22;48433;53.016;-2.260;2022-11-06T03:56:08;6.50;99.90
59309;DHT22;48433;53.016;-2.260;2022-11-06T03:58:38;6.50;99.90
59309;DHT22;48433;53.016;-2.260;2022-11-06T04:01:09;6.50;99.90
59309;DHT22;48433;53.016;-2.260;2022-11-06T04:03:48;6.50;99.90
59309;DHT22;48433;53.016;-2.260;2022-11-06T04:06:26;6.60;99.90
59309;DHT22;48433;53.016;-2.260;2022-11-06T04:08:58;6.60;99.90
59309;DHT22;48433;53.016;-2.260;2022-11-06T04:11:46;6.70;99.90
59309;DHT22;48433;53.016;-2.260;2022-11-06T04:17:06;6.70;99.90
59309;DHT22;48433;53.016;-2.260;2022-11-06T04:19:35;6.70;99.90
59309;DHT22;48433;53.016;-2.260;2022-11-06T04:24:58;6.80;99.90
59309;DHT22;48433;53.016;-2.260;2022-11-06T04:30:31;6.80;99.90
59309;DHT22;48433;53.016;-2.260;2022-11-06T04:41:18;7.00;99.90
59309;DHT22;48433;53.016;-2.260;2022-11-06T04:43:47;6.90;99.90
59309;DHT22;48433;53.016;-2.260;2022-11-06T04:46:23;7.00;99.90
59309;DHT22;48433;53.016;-2.260;2022-11-06T04:48:53;7.00;99.90
59309;DHT22;48433;53.016;-2.260;2022-11-06T04:51:27;7.00;99.90
59309;DHT22;48433;53.016;-2.260;2022-11-06T04:53:56;7.00;99.90
59309;DHT22;48433;53.016;-2.260;2022-11-06T04:56:30;7.10;99.90
59309;DHT22;48433;53.016;-2.260;2022-11-06T04:59:05;7.10;99.90
59309;DHT22;48433;53.016;-2.260;2022-11-06T05:01:33;7.10;99.90
59309;DHT22;48433;53.016;-2.260;2022-11-06T05:04:00;7.10;99.90
59309;DHT22;48433;53.016;-2.260;2022-11-06T05:06:28;7.20;99.90
59309;DHT22;48433;53.016;-2.260;2022-11-06T05:08:57;7.20;99.90
59309;DHT22;48433;53.016;-2.260;2022-11-06T05:11:25;7.20;99.90
59309;DHT22;48433;53.016;-2.260;2022-11-06T05:13:52;7.20;99.90
59309;DHT22;48433;53.016;-2.260;2022-11-06T05:16:21;7.20;99.90
59309;DHT22;48433;53.016;-2.260;2022-11-06T05:18:48;7.20;99.90
59309;DHT22;48433;53.016;-2.260;2022-11-06T05:24:02;7.30;99.90
59309;DHT22;48433;53.016;-2.260;2022-11-06T05:26:30;7.30;99.90
59309;DHT22;48433;53.016;-2.260;2022-11-06T05:28:58;7.30;99.90
59309;DHT22;48433;53.016;-2.260;2022-11-06T05:31:26;7.30;99.90
59309;DHT22;48433;53.016;-2.260;2022-11-06T05:33:54;7.30;99.90
59309;DHT22;48433;53.016;-2.260;2022-11-06T05:36:21;7.40;99.90
59309;DHT22;48433;53.016;-2.260;2022-11-06T05:38:49;7.40;99.90
59309;DHT22;48433;53.016;-2.260;2022-11-06T05:41:17;7.40;99.90
59309;DHT22;48433;53.016;-2.260;2022-11-06T05:43:44;7.30;99.90
59309;DHT22;48433;53.016;-2.260;2022-11-06T05:46:12;7.40;99.90
59309;DHT22;48433;53.016;-2.260;2022-11-06T05:48:59;7.30;99.90
59309;DHT22;48433;53.016;-2.260;2022-11-06T05:51:27;7.40;99.90
59309;DHT22;48433;53.016;-2.260;2022-11-06T05:53:55;7.40;99.90
59309;DHT22;48433;53.016;-2.260;2022-11-06T05:56:22;7.40;99.90
59309;DHT22;48433;53.016;-2.260;2022-11-06T05:58:50;7.40;99.90
59309;DHT22;48433;53.016;-2.260;2022-11-06T06:01:17;7.40;99.90
59309;DHT22;48433;53.016;-2.260;2022-11-06T06:03:45;7.40;99.90
59309;DHT22;48433;53.016;-2.260;2022-11-06T06:06:13;7.40;99.90
59309;DHT22;48433;53.016;-2.260;2022-11-06T06:08:40;7.40;99.90
59309;DHT22;48433;53.016;-2.260;2022-11-06T06:11:08;7.50;99.90
59309;DHT22;48433;53.016;-2.260;2022-11-06T06:13:35;7.50;99.90
59309;DHT22;48433;53.016;-2.260;2022-11-06T06:16:06;7.50;99.90
59309;DHT22;48433;53.016;-2.260;2022-11-06T06:18:34;7.50;99.90
59309;DHT22;48433;53.016;-2.260;2022-11-06T06:21:01;7.50;99.90
59309;DHT22;48433;53.016;-2.260;2022-11-06T06:23:29;7.50;99.90
59309;DHT22;48433;53.016;-2.260;2022-11-06T06:25:56;7.50;99.90
59309;DHT22;48433;53.016;-2.260;2022-11-06T06:28:24;7.50;99.90
59309;DHT22;48433;53.016;-2.260;2022-11-06T06:30:52;7.40;99.90
59309;DHT22;48433;53.016;-2.260;2022-11-06T06:33:27;7.40;99.90
59309;DHT22;48433;53.016;-2.260;2022-11-06T06:35:55;7.40;99.90
59309;DHT22;48433;53.016;-2.260;2022-11-06T06:38:22;7.40;99.90
59309;DHT22;48433;53.016;-2.260;2022-11-06T06:40:50;7.30;99.90
59309;DHT22;48433;53.016;-2.260;2022-11-06T06:43:18;7.30;99.90
59309;DHT22;48433;53.016;-2.260;2022-11-06T06:48:13;7.30;99.90
59309;DHT22;48433;53.016;-2.260;2022-11-06T06:50:41;7.40;99.90
59309;DHT22;48433;53.016;-2.260;2022-11-06T06:53:09;7.40;99.90
59309;DHT22;48433;53.016;-2.260;2022-11-06T06:55:36;7.40;99.90
59309;DHT22;48433;53.016;-2.260;2022-11-06T06:58:04;7.40;99.90
59309;DHT22;48433;53.016;-2.260;2022-11-06T07:00:31;7.40;99.90
59309;DHT22;48433;53.016;-2.260;2022-11-06T07:03:00;7.40;99.90
59309;DHT22;48433;53.016;-2.260;2022-11-06T07:05:28;7.40;99.90
59309;DHT22;48433;53.016;-2.260;2022-11-06T07:07:56;7.40;99.90
59309;DHT22;48433;53.016;-2.260;2022-11-06T07:10:23;7.40;99.90
59309;DHT22;48433;53.016;-2.260;2022-11-06T07:12:51;7.40;99.90
59309;DHT22;48433;53.016;-2.260;2022-11-06T07:15:18;7.40;99.90
59309;DHT22;48433;53.016;-2.260;2022-11-06T07:17:46;7.40;99.90
59309;DHT22;48433;53.016;-2.260;2022-11-06T07:20:13;7.40;99.90
59309;DHT22;48433;53.016;-2.260;2022-11-06T07:22:41;7.40;99.90
59309;DHT22;48433;53.016;-2.260;2022-11-06T07:25:08;7.40;99.90
59309;DHT22;48433;53.016;-2.260;2022-11-06T07:27:36;7.50;99.90
59309;DHT22;48433;53.016;-2.260;2022-11-06T07:30:04;7.40;99.90
59309;DHT22;48433;53.016;-2.260;2022-11-06T07:32:32;7.50;99.90
59309;DHT22;48433;53.016;-2.260;2022-11-06T07:34:59;7.60;99.90
59309;DHT22;48433;53.016;-2.260;2022-11-06T07:37:27;7.60;99.90
59309;DHT22;48433;53.016;-2.260;2022-11-06T07:39:54;7.70;99.90
59309;DHT22;48433;53.016;-2.260;2022-11-06T07:42:22;7.60;99.90
59309;DHT22;48433;53.016;-2.260;2022-11-06T07:45:00;7.70;99.90
59309;DHT22;48433;53.016;-2.260;2022-11-06T07:47:29;7.70;99.90
59309;DHT22;48433;53.016;-2.260;2022-11-06T07:49:57;7.80;99.90
59309;DHT22;48433;53.016;-2.260;2022-11-06T07:52:25;7.80;99.90
59309;DHT22;48433;53.016;-2.260;2022-11-06T07:57:28;7.90;99.90
59309;DHT22;48433;53.016;-2.260;2022-11-06T07:59:55;7.90;99.90
59309;DHT22;48433;53.016;-2.260;2022-11-06T08:02:23;8.10;99.90
59309;DHT22;48433;53.016;-2.260;2022-11-06T08:04:50;8.10;99.90
59309;DHT22;48433;53.016;-2.260;2022-11-06T08:07:18;8.10;99.90
59309;DHT22;48433;53.016;-2.260;2022-11-06T08:09:45;8.10;99.90
59309;DHT22;48433;53.016;-2.260;2022-11-06T08:12:14;8.20;99.90
59309;DHT22;48433;53.016;-2.260;2022-11-06T08:14:42;8.20;99.90
59309;DHT22;48433;53.016;-2.260;2022-11-06T08:17:09;8.20;99.90
59309;DHT22;48433;53.016;-2.260;2022-11-06T08:19:37;8.20;99.90
59309;DHT22;48433;53.016;-2.260;2022-11-06T08:22:04;8.20;99.90
59309;DHT22;48433;53.016;-2.260;2022-11-06T08:24:32;8.30;99.90
59309;DHT22;48433;53.016;-2.260;2022-11-06T08:27:00;8.30;99.90
59309;DHT22;48433;53.016;-2.260;2022-11-06T08:29:29;8.30;99.90
59309;DHT22;48433;53.016;-2.260;2022-11-06T08:31:57;8.40;99.90
59309;DHT22;48433;53.016;-2.260;2022-11-06T08:34:24;8.40;99.90
59309;DHT22;48433;53.016;-2.260;2022-11-06T08:36:52;8.40;99.90
59309;DHT22;48433;53.016;-2.260;2022-11-06T08:39:20;8.40;99.90
59309;DHT22;48433;53.016;-2.260;2022-11-06T08:41:47;8.40;99.90
59309;DHT22;48433;53.016;-2.260;2022-11-06T08:44:15;8.40;99.90
59309;DHT22;48433;53.016;-2.260;2022-11-06T08:46:43;8.50;99.90
59309;DHT22;48433;53.016;-2.260;2022-11-06T08:49:18;8.50;99.90
59309;DHT22;48433;53.016;-2.260;2022-11-06T08:51:45;8.50;99.90
59309;DHT22;48433;53.016;-2.260;2022-11-06T08:54:13;8.50;99.90
59309;DHT22;48433;53.016;-2.260;2022-11-06T08:56:41;8.50;99.90
59309;DHT22;48433;53.016;-2.260;2022-11-06T08:59:08;8.60;99.90
59309;DHT22;48433;53.016;-2.260;2022-11-06T09:01:36;8.70;99.90
59309;DHT22;48433;53.016;-2.260;2022-11-06T09:04:04;8.70;99.90
59309;DHT22;48433;53.016;-2.260;2022-11-06T09:06:32;8.90;99.90
59309;DHT22;48433;53.016;-2.260;2022-11-06T09:08:59;8.90;99.90
59309;DHT22;48433;53.016;-2.260;2022-11-06T09:11:27;9.00;99.90
59309;DHT22;48433;53.016;-2.260;2022-11-06T09:13:55;9.00;99.90
59309;DHT22;48433;53.016;-2.260;2022-11-06T09:16:23;9.00;99.90
59309;DHT22;48433;53.016;-2.260;2022-11-06T09:18:53;9.10;99.90
59309;DHT22;48433;53.016;-2.260;2022-11-06T09:21:22;9.20;99.90
59309;DHT22;48433;53.016;-2.260;2022-11-06T09:23:49;9.20;99.90
59309;DHT22;48433;53.016;-2.260;2022-11-06T09:26:18;9.20;99.90
59309;DHT22;48433;53.016;-2.260;2022-11-06T09:28:46;9.20;99.90
59309;DHT22;48433;53.016;-2.260;2022-11-06T09:31:13;9.20;99.90
59309;DHT22;48433;53.016;-2.260;2022-11-06T09:33:41;9.30;99.90
59309;DHT22;48433;53.016;-2.260;2022-11-06T09:36:09;9.40;99.90
59309;DHT22;48433;53.016;-2.260;2022-11-06T09:38:37;9.40;99.90
59309;DHT22;48433;53.016;-2.260;2022-11-06T09:41:05;9.50;99.90
59309;DHT22;48433;53.016;-2.260;2022-11-06T09:46:40;9.80;99.90
59309;DHT22;48433;53.016;-2.260;2022-11-06T09:54:25;9.90;99.90
59309;DHT22;48433;53.016;-2.260;2022-11-06T09:57:00;10.00;99.90
59309;DHT22;48433;53.016;-2.260;2022-11-06T09:59:31;10.20;99.90
59309;DHT22;48433;53.016;-2.260;2022-11-06T10:02:01;10.60;99.90
59309;DHT22;48433;53.016;-2.260;2022-11-06T10:04:37;11.10;99.90
59309;DHT22;48433;53.016;-2.260;2022-11-06T10:07:27;11.10;99.90
59309;DHT22;48433;53.016;-2.260;2022-11-06T10:09:55;11.20;99.90
59309;DHT22;48433;53.016;-2.260;2022-11-06T10:15:19;11.30;99.90
59309;DHT22;48433;53.016;-2.260;2022-11-06T10:23:58;11.10;99.90
59309;DHT22;48433;53.016;-2.260;2022-11-06T10:26:40;10.90;99.90
59309;DHT22;48433;53.016;-2.260;2022-11-06T10:32:44;10.70;99.90
59309;DHT22;48433;53.016;-2.260;2022-11-06T10:40:37;10.50;99.90
59309;DHT22;48433;53.016;-2.260;2022-11-06T10:45:48;10.40;99.90
59309;DHT22;48433;53.016;-2.260;2022-11-06T10:48:24;10.40;99.90
59309;DHT22;48433;53.016;-2.260;2022-11-06T10:51:12;10.40;99.90
59309;DHT22;48433;53.016;-2.260;2022-11-06T10:58:58;10.60;99.90
59309;DHT22;48433;53.016;-2.260;2022-11-06T11:01:26;10.80;99.90
59309;DHT22;48433;53.016;-2.260;2022-11-06T11:03:54;10.80;99.90
59309;DHT22;48433;53.016;-2.260;2022-11-06T11:06:21;11.00;99.90
59309;DHT22;48433;53.016;-2.260;2022-11-06T11:08:50;11.00;99.90
59309;DHT22;48433;53.016;-2.260;2022-11-06T11:16:29;11.20;99.90
59309;DHT22;48433;53.016;-2.260;2022-11-06T11:21:58;11.50;99.90
59309;DHT22;48433;53.016;-2.260;2022-11-06T11:24:26;11.70;99.90
59309;DHT22;48433;53.016;-2.260;2022-11-06T11:26:58;12.20;99.90
59309;DHT22;48433;53.016;-2.260;2022-11-06T11:29:43;12.30;99.90
59309;DHT22;48433;53.016;-2.260;2022-11-06T11:32:16;12.50;99.90
59309;DHT22;48433;53.016;-2.260;2022-11-06T11:34:50;12.70;99.90
59309;DHT22;48433;53.016;-2.260;2022-11-06T11:37:32;13.10;99.90
59309;DHT22;48433;53.016;-2.260;2022-11-06T11:42:49;13.60;99.90
59309;DHT22;48433;53.016;-2.260;2022-11-06T11:45:19;13.40;99.90
59309;DHT22;48433;53.016;-2.260;2022-11-06T11:47:50;13.40;99.90
59309;DHT22;48433;53.016;-2.260;2022-11-06T11:50:30;13.20;99.90
59309;DHT22;48433;53.016;-2.260;2022-11-06T11:53:03;13.00;99.90
59309;DHT22;48433;53.016;-2.260;2022-11-06T11:55:43;12.60;99.90
59309;DHT22;48433;53.016;-2.260;2022-11-06T11:58:22;12.60;99.90
59309;DHT22;48433;53.016;-2.260;2022-11-06T12:01:01;12.50;99.90
59309;DHT22;48433;53.016;-2.260;2022-11-06T12:03:38;12.30;99.90
59309;DHT22;48433;53.016;-2.260;2022-11-06T12:06:16;12.10;99.90
59309;DHT22;48433;53.016;-2.260;2022-11-06T12:08:47;12.00;99.90
59309;DHT22;48433;53.016;-2.260;2022-11-06T12:11:34;12.00;99.90
59309;DHT22;48433;53.016;-2.260;2022-11-06T12:16:49;11.80;99.90
59309;DHT22;48433;53.016;-2.260;2022-11-06T12:19:19;11.80;99.90
59309;DHT22;48433;53.016;-2.260;2022-11-06T12:21:52;11.70;99.90
59309;DHT22;48433;53.016;-2.260;2022-11-06T12:24:23;11.70;99.90
59309;DHT22;48433;53.016;-2.260;2022-11-06T12:27:18;11.60;99.90
59309;DHT22;48433;53.016;-2.260;2022-11-06T12:30:10;11.60;99.90
59309;DHT22;48433;53.016;-2.260;2022-11-06T12:40:47;11.40;99.90
59309;DHT22;48433;53.016;-2.260;2022-11-06T13:05:25;11.30;99.90
59309;DHT22;48433;53.016;-2.260;2022-11-06T13:08:22;11.30;99.90
59309;DHT22;48433;53.016;-2.260;2022-11-06T13:25:49;11.00;99.90
59309;DHT22;48433;53.016;-2.260;2022-11-06T13:28:29;11.00;99.90
59309;DHT22;48433;53.016;-2.260;2022-11-06T13:31:02;11.00;99.90
59309;DHT22;48433;53.016;-2.260;2022-11-06T13:33:43;11.00;99.90
59309;DHT22;48433;53.016;-2.260;2022-11-06T13:36:13;11.00;99.90
59309;DHT22;48433;53.016;-2.260;2022-11-06T13:38:59;11.00;99.90
59309;DHT22;48433;53.016;-2.260;2022-11-06T13:41:30;11.00;99.90
59309;DHT22;48433;53.016;-2.260;2022-11-06T13:44:04;10.90;99.90
59309;DHT22;48433;53.016;-2.260;2022-11-06T13:49:33;10.90;99.90
59309;DHT22;48433;53.016;-2.260;2022-11-06T13:57:56;10.90;99.90
59309;DHT22;48433;53.016;-2.260;2022-11-06T14:00:54;10.90;99.90
59309;DHT22;48433;53.016;-2.260;2022-11-06T14:06:19;11.00;99.90
59309;DHT22;48433;53.016;-2.260;2022-11-06T14:08:50;11.00;99.90
59309;DHT22;48433;53.016;-2.260;2022-11-06T14:11:24;11.00;99.90
59309;DHT22;48433;53.016;-2.260;2022-11-06T14:14:02;11.00;99.90
59309;DHT22;48433;53.016;-2.260;2022-11-06T14:16:35;11.00;99.90
59309;DHT22;48433;53.016;-2.260;2022-11-06T14:19:09;11.00;99.90
59309;DHT22;48433;53.016;-2.260;2022-11-06T14:21:53;11.00;99.90
59309;DHT22;48433;53.016;-2.260;2022-11-06T14:24:30;11.00;99.90
59309;DHT22;48433;53.016;-2.260;2022-11-06T14:27:00;11.00;99.90
59309;DHT22;48433;53.016;-2.260;2022-11-06T14:32:08;11.00;99.90
59309;DHT22;48433;53.016;-2.260;2022-11-06T14:34:41;11.00;99.90
59309;DHT22;48433;53.016;-2.260;2022-11-06T14:42:34;11.10;99.90
59309;DHT22;48433;53.016;-2.260;2022-11-06T14:50:37;11.30;99.90
59309;DHT22;48433;53.016;-2.260;2022-11-06T14:53:25;11.70;99.90
59309;DHT22;48433;53.016;-2.260;2022-11-06T14:56:09;11.90;99.90
59309;DHT22;48433;53.016;-2.260;2022-11-06T14:58:40;11.90;99.90
59309;DHT22;48433;53.016;-2.260;2022-11-06T15:01:15;11.80;99.90
59309;DHT22;48433;53.016;-2.260;2022-11-06T15:04:05;11.80;99.90
59309;DHT22;48433;53.016;-2.260;2022-11-06T15:06:35;11.80;99.90
59309;DHT22;48433;53.016;-2.260;2022-11-06T15:09:12;11.70;99.90
59309;DHT22;48433;53.016;-2.260;2022-11-06T15:16:49;11.40;99.90
59309;DHT22;48433;53.016;-2.260;2022-11-06T15:24:35;11.30;99.90
59309;DHT22;48433;53.016;-2.260;2022-11-06T15:27:24;11.20;99.90
59309;DHT22;48433;53.016;-2.260;2022-11-06T15:29:56;11.10;99.90
59309;DHT22;48433;53.016;-2.260;2022-11-06T15:32:26;11.10;99.90
59309;DHT22;48433;53.016;-2.260;2022-11-06T15:35:02;11.10;99.90
59309;DHT22;48433;53.016;-2.260;2022-11-06T15:37:37;11.00;99.90
59309;DHT22;48433;53.016;-2.260;2022-11-06T15:40:27;10.90;99.90
59309;DHT22;48433;53.016;-2.260;2022-11-06T15:43:05;10.90;99.90
59309;DHT22;48433;53.016;-2.260;2022-11-06T15:45:32;10.80;99.90
59309;DHT22;48433;53.016;-2.260;2022-11-06T15:48:05;10.80;99.90
59309;DHT22;48433;53.016;-2.260;2022-11-06T15:50:35;10.70;99.90
59309;DHT22;48433;53.016;-2.260;2022-11-06T15:55:55;10.70;99.90
59309;DHT22;48433;53.016;-2.260;2022-11-06T15:58:28;10.70;99.90
59309;DHT22;48433;53.016;-2.260;2022-11-06T16:00:59;10.60;99.90
59309;DHT22;48433;53.016;-2.260;2022-11-06T16:03:30;10.60;99.90
59309;DHT22;48433;53.016;-2.260;2022-11-06T16:06:02;10.60;99.90
59309;DHT22;48433;53.016;-2.260;2022-11-06T16:08:30;10.50;99.90
59309;DHT22;48433;53.016;-2.260;2022-11-06T16:10:59;10.50;99.90
59309;DHT22;48433;53.016;-2.260;2022-11-06T16:13:27;10.50;99.90
59309;DHT22;48433;53.016;-2.260;2022-11-06T16:16:00;10.50;99.90
59309;DHT22;48433;53.016;-2.260;2022-11-06T16:18:42;10.50;99.90
59309;DHT22;48433;53.016;-2.260;2022-11-06T16:23:43;10.40;99.90
59309;DHT22;48433;53.016;-2.260;2022-11-06T16:26:16;10.40;99.90
59309;DHT22;48433;53.016;-2.260;2022-11-06T16:28:48;10.40;99.90
59309;DHT22;48433;53.016;-2.260;2022-11-06T16:31:19;10.30;99.90
59309;DHT22;48433;53.016;-2.260;2022-11-06T16:34:02;10.30;99.90
59309;DHT22;48433;53.016;-2.260;2022-11-06T16:37:09;10.20;99.90
59309;DHT22;48433;53.016;-2.260;2022-11-06T16:39:56;10.20;99.90
59309;DHT22;48433;53.016;-2.260;2022-11-06T16:42:35;10.10;99.90
59309;DHT22;48433;53.016;-2.260;2022-11-06T16:45:17;10.00;99.90
59309;DHT22;48433;53.016;-2.260;2022-11-06T16:50:42;9.90;99.90
59309;DHT22;48433;53.016;-2.260;2022-11-06T16:53:11;9.80;99.90
59309;DHT22;48433;53.016;-2.260;2022-11-06T16:55:54;9.60;99.90
59309;DHT22;48433;53.016;-2.260;2022-11-06T16:58:22;9.70;99.90
59309;DHT22;48433;53.016;-2.260;2022-11-06T17:01:01;9.50;99.90
59309;DHT22;48433;53.016;-2.260;2022-11-06T17:06:26;9.40;99.90
59309;DHT22;48433;53.016;-2.260;2022-11-06T17:09:04;9.30;99.90
59309;DHT22;48433;53.016;-2.260;2022-11-06T17:11:36;9.30;99.90
59309;DHT22;48433;53.016;-2.260;2022-11-06T17:14:16;9.20;99.90
59309;DHT22;48433;53.016;-2.260;2022-11-06T17:16:49;9.10;99.90
59309;DHT22;48433;53.016;-2.260;2022-11-06T17:19:19;9.00;99.90
59309;DHT22;48433;53.016;-2.260;2022-11-06T17:21:48;9.00;99.90
59309;DHT22;48433;53.016;-2.260;2022-11-06T17:24:17;8.90;99.90
59309;DHT22;48433;53.016;-2.260;2022-11-06T17:27:03;8.80;99.90
59309;DHT22;48433;53.016;-2.260;2022-11-06T17:29:33;8.80;99.90
59309;DHT22;48433;53.016;-2.260;2022-11-06T17:32:02;8.80;99.90
59309;DHT22;48433;53.016;-2.260;2022-11-06T17:34:30;8.70;99.90
59309;DHT22;48433;53.016;-2.260;2022-11-06T17:36:58;8.60;99.90
59309;DHT22;48433;53.016;-2.260;2022-11-06T17:39:25;8.60;99.90
59309;DHT22;48433;53.016;-2.260;2022-11-06T17:41:53;8.50;99.90
59309;DHT22;48433;53.016;-2.260;2022-11-06T17:44:21;8.40;99.90
59309;DHT22;48433;53.016;-2.260;2022-11-06T17:46:48;8.40;99.90
59309;DHT22;48433;53.016;-2.260;2022-11-06T17:49:16;8.40;99.90
59309;DHT22;48433;53.016;-2.260;2022-11-06T17:51:46;8.30;99.90
59309;DHT22;48433;53.016;-2.260;2022-11-06T17:54:17;8.30;99.90
59309;DHT22;48433;53.016;-2.260;2022-11-06T17:56:45;8.30;99.90
59309;DHT22;48433;53.016;-2.260;2022-11-06T17:59:13;8.30;99.90
59309;DHT22;48433;53.016;-2.260;2022-11-06T18:01:41;8.40;99.90
59309;DHT22;48433;53.016;-2.260;2022-11-06T18:04:08;8.40;99.90
59309;DHT22;48433;53.016;-2.260;2022-11-06T18:06:36;8.40;99.90
59309;DHT22;48433;53.016;-2.260;2022-11-06T18:09:05;8.40;99.90
59309;DHT22;48433;53.016;-2.260;2022-11-06T18:11:33;8.40;99.90
59309;DHT22;48433;53.016;-2.260;2022-11-06T18:14:02;8.40;99.90
59309;DHT22;48433;53.016;-2.260;2022-11-06T18:16:31;8.40;99.90
59309;DHT22;48433;53.016;-2.260;2022-11-06T18:19:00;8.50;99.90
59309;DHT22;48433;53.016;-2.260;2022-11-06T18:21:27;8.50;99.90
59309;DHT22;48433;53.016;-2.260;2022-11-06T18:26:23;8.50;99.90
59309;DHT22;48433;53.016;-2.260;2022-11-06T18:33:19;8.60;99.90
59309;DHT22;48433;53.016;-2.260;2022-11-06T18:35:46;8.50;99.90
59309;DHT22;48433;53.016;-2.260;2022-11-06T18:38:15;8.60;99.90
59309;DHT22;48433;53.016;-2.260;2022-11-06T18:55:43;8.50;99.90
59309;DHT22;48433;53.016;-2.260;2022-11-06T18:58:12;8.50;99.90
59309;DHT22;48433;53.016;-2.260;2022-11-06T19:00:40;8.50;99.90
59309;DHT22;48433;53.016;-2.260;2022-11-06T19:03:08;8.40;99.90
59309;DHT22;48433;53.016;-2.260;2022-11-06T19:05:35;8.40;99.90
59309;DHT22;48433;53.016;-2.260;2022-11-06T19:08:03;8.40;99.90
59309;DHT22;48433;53.016;-2.260;2022-11-06T19:10:31;8.40;99.90
59309;DHT22;48433;53.016;-2.260;2022-11-06T19:12:58;8.40;99.90
59309;DHT22;48433;53.016;-2.260;2022-11-06T19:15:26;8.40;99.90
59309;DHT22;48433;53.016;-2.260;2022-11-06T19:17:53;8.30;99.90
59309;DHT22;48433;53.016;-2.260;2022-11-06T19:20:21;8.30;99.90
59309;DHT22;48433;53.016;-2.260;2022-11-06T19:22:50;8.30;99.90
59309;DHT22;48433;53.016;-2.260;2022-11-06T19:25:19;8.30;99.90
59309;DHT22;48433;53.016;-2.260;2022-11-06T19:27:47;8.20;99.90
59309;DHT22;48433;53.016;-2.260;2022-11-06T19:30:15;8.30;99.90